Hub


Voltar

 INFORMAÇÕES METEOROLÓGICAS

METAR FOR PAHO


ADDS - METARS form results

(1322 UTC 27 June 2019)
Data provider http://aviationweather.gov/metar/data/
 
METAR text: PAHO 271313Z AUTO 00000KT 3SM BR CLR 09/09 A3014 RMK AO2 T00940089 TSNO
Conditions at: PAHO (HOMER , AK, US) observed 1313 UTC 27 June 2019
Temperature: 9.4°C (49°F)
Dewpoint: 8.9°C (48°F) [RH = 97%]
Pressure (altimeter): 30.14 inches Hg (1020.7 mb)
Winds: calm
Visibility: 3 miles ( 5 km)
Ceiling: at least 12,000 feet AGL
Clouds: sky clear below 12,000 feet AGL
Weather: BR  (mist)

METAR text: PAHO 271256Z AUTO 00000KT 1 3/4SM BR CLR 09/08 A3015 RMK AO2 T00940083 TSNO
Conditions at: PAHO (HOMER , AK, US) observed 1256 UTC 27 June 2019
Temperature: 9.4°C (49°F)
Dewpoint: 8.3°C (47°F) [RH = 93%]
Pressure (altimeter): 30.15 inches Hg (1021.1 mb)
Winds: calm
Visibility: 1.75 miles (2.82 km)
Ceiling: at least 12,000 feet AGL
Clouds: sky clear below 12,000 feet AGL
Weather: BR  (mist)

METAR text: PAHO 271253Z AUTO 00000KT 3SM BR CLR 09/08 A3015 RMK AO2 SLP208 T00940083 TSNO
Conditions at: PAHO (HOMER , AK, US) observed 1253 UTC 27 June 2019
Temperature: 9.4°C (49°F)
Dewpoint: 8.3°C (47°F) [RH = 93%]
Pressure (altimeter): 30.15 inches Hg (1021.1 mb)
[Sea-level pressure: 1020.8 mb]
Winds: calm
Visibility: 3 miles ( 5 km)
Ceiling: at least 12,000 feet AGL
Clouds: sky clear below 12,000 feet AGL
Weather: BR  (mist)

Forecast for: PAHO (HOMER , AK, US)
Text: PAHO 271120Z 2712/2812 VRB05KT P6SM FEW200
Forecast period: 1200 to 2000 UTC 27 June 2019
Forecast type: FROM: standard forecast or significant change
Winds: variable direction winds at 6 MPH (5 knots; 2.6 m/s)
Visibility: 6 or more miles 10+ km)
Ceiling: at least 12,000 feet AGL
Clouds: few clouds at 20000 feet AGL
Weather: no significant weather forecast for this period
Text: FM272000 25011KT P6SM SKC
Forecast period: 2000 UTC 27 June 2019 to 0600 UTC 28 June 2019
Forecast type: FROM: standard forecast or significant change
Winds: from the WSW (250 degrees) at 13 MPH (11 knots; 5.7 m/s)
Visibility: 6 or more miles 10+ km)
Clouds: clear skies
Weather: no significant weather forecast for this period
Text: FM280600 VRB04KT P6SM SKC
Forecast period: 0600 to 1200 UTC 28 June 2019
Forecast type: FROM: standard forecast or significant change
Winds: variable direction winds at 5 MPH (4 knots; 2.1 m/s)
Visibility: 6 or more miles 10+ km)
Clouds: clear skies
Weather: no significant weather forecast for this period


 MAPA DO AEROPORTO


 INFORMAÇÕES DA PISTA

Pista 03 Tamanho da pista 6701 ft Largura da pista 150 ft
Elevação da pista 64 ft Ranhura da pista 0 ft Proa da pista 55
Pista 21 Tamanho da pista 6701 ft Largura da pista 150 ft
Elevação da pista 68 ft Ranhura da pista 0 ft Proa da pista 235

 FREQUÊNCIAS DO AEROPORTO

Tipo ASOS Nome ASOS Frequência 135.65 MHZ
Tipo CNTR Nome ANCHORAGE Frequência 125.9 MHZ
Tipo CTAF Nome CTAF Frequência 123.6 MHZ
Tipo FSS Nome RDO Frequência 123.6 MHZ
Tipo MISC Nome TWEB Frequência 114.6 MHZ
Tipo RFSS Nome KENAI RDO Frequência 123.6 MHZ
Tipo UNIC Nome UNICOM Frequência 123.05 MHZ

 AUXÍLIOS DE NAVEGAÇÃO PRÓXIMOS AO AEROPORTO

Tipo NDB Nome Kachemak Frequência 277 KHZ
Tipo VOR-DME Nome Homer Frequência 114600 KHZ